sensor_id;sensor_type;location;lat;lon;timestamp;temperature;humidity
8676;DHT22;4375;52.486;13.424;2023-07-20T00:00:06;18.40;99.90
8676;DHT22;4375;52.486;13.424;2023-07-20T00:02:32;18.30;99.90
8676;DHT22;4375;52.486;13.424;2023-07-20T00:04:58;18.20;99.90
8676;DHT22;4375;52.486;13.424;2023-07-20T00:07:23;18.10;99.90
8676;DHT22;4375;52.486;13.424;2023-07-20T00:09:50;18.20;99.90
8676;DHT22;4375;52.486;13.424;2023-07-20T00:12:15;18.10;99.90
8676;DHT22;4375;52.486;13.424;2023-07-20T00:14:41;18.10;99.90
8676;DHT22;4375;52.486;13.424;2023-07-20T00:17:07;18.00;99.90
8676;DHT22;4375;52.486;13.424;2023-07-20T00:19:32;18.20;99.90
8676;DHT22;4375;52.486;13.424;2023-07-20T00:21:58;18.20;99.90
8676;DHT22;4375;52.486;13.424;2023-07-20T00:24:24;18.10;99.90
8676;DHT22;4375;52.486;13.424;2023-07-20T00:26:50;17.90;99.90
8676;DHT22;4375;52.486;13.424;2023-07-20T00:29:15;17.90;99.90
8676;DHT22;4375;52.486;13.424;2023-07-20T00:31:41;17.90;99.90
8676;DHT22;4375;52.486;13.424;2023-07-20T00:34:08;17.80;99.90
8676;DHT22;4375;52.486;13.424;2023-07-20T00:36:34;17.90;99.90
8676;DHT22;4375;52.486;13.424;2023-07-20T00:39:00;17.90;99.90
8676;DHT22;4375;52.486;13.424;2023-07-20T00:41:25;17.90;99.90
8676;DHT22;4375;52.486;13.424;2023-07-20T00:43:54;17.90;99.90
8676;DHT22;4375;52.486;13.424;2023-07-20T00:46:23;17.90;99.90
8676;DHT22;4375;52.486;13.424;2023-07-20T00:48:48;17.90;99.90
8676;DHT22;4375;52.486;13.424;2023-07-20T00:51:14;17.80;99.90
8676;DHT22;4375;52.486;13.424;2023-07-20T00:53:40;17.70;99.90
8676;DHT22;4375;52.486;13.424;2023-07-20T00:56:05;17.80;99.90
8676;DHT22;4375;52.486;13.424;2023-07-20T00:58:33;17.70;99.90
8676;DHT22;4375;52.486;13.424;2023-07-20T01:00:59;17.70;99.90
8676;DHT22;4375;52.486;13.424;2023-07-20T01:03:24;17.60;99.90
8676;DHT22;4375;52.486;13.424;2023-07-20T01:06:02;17.70;99.90
8676;DHT22;4375;52.486;13.424;2023-07-20T01:09:34;17.60;99.90
8676;DHT22;4375;52.486;13.424;2023-07-20T01:11:57;17.60;99.90
8676;DHT22;4375;52.486;13.424;2023-07-20T01:14:25;17.50;99.90
8676;DHT22;4375;52.486;13.424;2023-07-20T01:16:51;17.50;99.90
8676;DHT22;4375;52.486;13.424;2023-07-20T01:19:18;17.50;99.90
8676;DHT22;4375;52.486;13.424;2023-07-20T01:21:59;17.40;99.90
8676;DHT22;4375;52.486;13.424;2023-07-20T01:33:18;17.50;99.90
8676;DHT22;4375;52.486;13.424;2023-07-20T01:35:50;17.40;99.90
8676;DHT22;4375;52.486;13.424;2023-07-20T01:38:19;17.40;99.90
8676;DHT22;4375;52.486;13.424;2023-07-20T01:40:45;17.40;99.90
8676;DHT22;4375;52.486;13.424;2023-07-20T01:43:12;17.40;99.90
8676;DHT22;4375;52.486;13.424;2023-07-20T01:45:38;17.30;99.90
8676;DHT22;4375;52.486;13.424;2023-07-20T01:48:05;17.40;99.90
8676;DHT22;4375;52.486;13.424;2023-07-20T01:50:30;17.30;99.90
8676;DHT22;4375;52.486;13.424;2023-07-20T01:52:57;17.40;99.90
8676;DHT22;4375;52.486;13.424;2023-07-20T01:55:22;17.30;99.90
8676;DHT22;4375;52.486;13.424;2023-07-20T01:57:48;17.50;99.90
8676;DHT22;4375;52.486;13.424;2023-07-20T02:00:14;17.40;99.90
8676;DHT22;4375;52.486;13.424;2023-07-20T02:02:41;17.50;99.90
8676;DHT22;4375;52.486;13.424;2023-07-20T02:05:07;17.50;99.90
8676;DHT22;4375;52.486;13.424;2023-07-20T02:07:33;17.40;99.90
8676;DHT22;4375;52.486;13.424;2023-07-20T02:09:58;17.50;99.90
8676;DHT22;4375;52.486;13.424;2023-07-20T02:12:24;17.40;99.90
8676;DHT22;4375;52.486;13.424;2023-07-20T02:14:50;17.50;99.90
8676;DHT22;4375;52.486;13.424;2023-07-20T02:17:16;17.40;99.90
8676;DHT22;4375;52.486;13.424;2023-07-20T02:19:42;17.50;99.90
8676;DHT22;4375;52.486;13.424;2023-07-20T02:22:07;17.50;99.90
8676;DHT22;4375;52.486;13.424;2023-07-20T02:24:34;17.40;99.90
8676;DHT22;4375;52.486;13.424;2023-07-20T02:26:59;17.50;99.90
8676;DHT22;4375;52.486;13.424;2023-07-20T02:29:25;17.50;99.90
8676;DHT22;4375;52.486;13.424;2023-07-20T02:31:51;17.40;99.90
8676;DHT22;4375;52.486;13.424;2023-07-20T02:34:16;17.40;99.90
8676;DHT22;4375;52.486;13.424;2023-07-20T02:36:42;17.30;99.90
8676;DHT22;4375;52.486;13.424;2023-07-20T02:39:08;17.40;99.90
8676;DHT22;4375;52.486;13.424;2023-07-20T02:41:34;17.50;99.90
8676;DHT22;4375;52.486;13.424;2023-07-20T02:44:00;17.50;99.90
8676;DHT22;4375;52.486;13.424;2023-07-20T02:46:26;17.50;99.90
8676;DHT22;4375;52.486;13.424;2023-07-20T02:48:52;17.50;99.90
8676;DHT22;4375;52.486;13.424;2023-07-20T02:51:17;17.50;99.90
8676;DHT22;4375;52.486;13.424;2023-07-20T02:53:43;17.50;99.90
8676;DHT22;4375;52.486;13.424;2023-07-20T02:56:09;17.50;99.90
8676;DHT22;4375;52.486;13.424;2023-07-20T02:58:34;17.40;99.90
8676;DHT22;4375;52.486;13.424;2023-07-20T03:01:04;17.40;99.90
8676;DHT22;4375;52.486;13.424;2023-07-20T03:03:29;17.50;99.90
8676;DHT22;4375;52.486;13.424;2023-07-20T03:05:55;17.50;99.90
8676;DHT22;4375;52.486;13.424;2023-07-20T03:08:22;17.50;99.90
8676;DHT22;4375;52.486;13.424;2023-07-20T03:10:48;17.60;99.90
8676;DHT22;4375;52.486;13.424;2023-07-20T03:13:14;17.50;99.90
8676;DHT22;4375;52.486;13.424;2023-07-20T03:15:41;17.60;99.90
8676;DHT22;4375;52.486;13.424;2023-07-20T03:18:07;17.60;99.90
8676;DHT22;4375;52.486;13.424;2023-07-20T03:20:32;17.60;99.90
8676;DHT22;4375;52.486;13.424;2023-07-20T03:22:58;17.50;99.90
8676;DHT22;4375;52.486;13.424;2023-07-20T03:25:23;17.50;99.90
8676;DHT22;4375;52.486;13.424;2023-07-20T03:27:49;17.50;99.90
8676;DHT22;4375;52.486;13.424;2023-07-20T03:30:15;17.50;99.90
8676;DHT22;4375;52.486;13.424;2023-07-20T03:32:40;17.40;99.90
8676;DHT22;4375;52.486;13.424;2023-07-20T03:35:06;17.50;99.90
8676;DHT22;4375;52.486;13.424;2023-07-20T03:37:32;17.50;99.90
8676;DHT22;4375;52.486;13.424;2023-07-20T03:40:00;17.60;99.90
8676;DHT22;4375;52.486;13.424;2023-07-20T03:42:25;17.60;99.90
8676;DHT22;4375;52.486;13.424;2023-07-20T03:44:51;17.60;99.90
8676;DHT22;4375;52.486;13.424;2023-07-20T03:47:17;17.60;99.90
8676;DHT22;4375;52.486;13.424;2023-07-20T03:49:42;17.70;99.90
8676;DHT22;4375;52.486;13.424;2023-07-20T03:52:08;17.70;99.90
8676;DHT22;4375;52.486;13.424;2023-07-20T03:54:33;17.60;99.90
8676;DHT22;4375;52.486;13.424;2023-07-20T03:56:59;17.70;99.90
8676;DHT22;4375;52.486;13.424;2023-07-20T03:59:26;17.70;99.90
8676;DHT22;4375;52.486;13.424;2023-07-20T04:01:52;17.70;99.90
8676;DHT22;4375;52.486;13.424;2023-07-20T04:04:17;17.70;99.90
8676;DHT22;4375;52.486;13.424;2023-07-20T04:06:43;17.70;99.90
8676;DHT22;4375;52.486;13.424;2023-07-20T04:09:10;17.70;99.90
8676;DHT22;4375;52.486;13.424;2023-07-20T04:11:37;17.70;99.90
8676;DHT22;4375;52.486;13.424;2023-07-20T04:14:02;17.70;99.90
8676;DHT22;4375;52.486;13.424;2023-07-20T04:16:28;17.70;99.90
8676;DHT22;4375;52.486;13.424;2023-07-20T04:18:56;17.60;99.90
8676;DHT22;4375;52.486;13.424;2023-07-20T04:21:23;17.70;99.90
8676;DHT22;4375;52.486;13.424;2023-07-20T04:23:48;17.70;99.90
8676;DHT22;4375;52.486;13.424;2023-07-20T04:26:14;17.70;99.90
8676;DHT22;4375;52.486;13.424;2023-07-20T04:28:40;17.80;99.90
8676;DHT22;4375;52.486;13.424;2023-07-20T04:31:15;17.80;99.90
8676;DHT22;4375;52.486;13.424;2023-07-20T04:33:41;17.70;99.90
8676;DHT22;4375;52.486;13.424;2023-07-20T04:36:07;17.70;99.90
8676;DHT22;4375;52.486;13.424;2023-07-20T04:38:33;17.60;99.90
8676;DHT22;4375;52.486;13.424;2023-07-20T04:40:58;17.50;99.90
8676;DHT22;4375;52.486;13.424;2023-07-20T04:43:24;17.60;99.90
8676;DHT22;4375;52.486;13.424;2023-07-20T04:45:50;17.60;99.90
8676;DHT22;4375;52.486;13.424;2023-07-20T04:48:17;17.60;99.90
8676;DHT22;4375;52.486;13.424;2023-07-20T04:50:45;17.70;99.90
8676;DHT22;4375;52.486;13.424;2023-07-20T04:53:11;17.80;99.90
8676;DHT22;4375;52.486;13.424;2023-07-20T04:55:40;17.80;99.90
8676;DHT22;4375;52.486;13.424;2023-07-20T04:58:15;17.90;99.90
8676;DHT22;4375;52.486;13.424;2023-07-20T05:00:42;17.80;99.90
8676;DHT22;4375;52.486;13.424;2023-07-20T05:03:07;17.90;99.90
8676;DHT22;4375;52.486;13.424;2023-07-20T05:05:35;18.00;99.90
8676;DHT22;4375;52.486;13.424;2023-07-20T05:08:01;17.90;99.90
8676;DHT22;4375;52.486;13.424;2023-07-20T05:10:26;18.00;99.90
8676;DHT22;4375;52.486;13.424;2023-07-20T05:12:52;18.00;99.90
8676;DHT22;4375;52.486;13.424;2023-07-20T05:15:18;18.20;99.90
8676;DHT22;4375;52.486;13.424;2023-07-20T05:17:43;18.00;99.90
8676;DHT22;4375;52.486;13.424;2023-07-20T05:20:09;18.10;99.90
8676;DHT22;4375;52.486;13.424;2023-07-20T05:22:36;18.30;99.90
8676;DHT22;4375;52.486;13.424;2023-07-20T05:25:06;18.30;99.90
8676;DHT22;4375;52.486;13.424;2023-07-20T05:27:32;18.30;99.90
8676;DHT22;4375;52.486;13.424;2023-07-20T05:29:57;18.30;99.90
8676;DHT22;4375;52.486;13.424;2023-07-20T05:32:24;18.60;99.90
8676;DHT22;4375;52.486;13.424;2023-07-20T05:34:52;18.60;99.90
8676;DHT22;4375;52.486;13.424;2023-07-20T05:37:18;18.70;99.90
8676;DHT22;4375;52.486;13.424;2023-07-20T05:39:43;18.70;99.90
8676;DHT22;4375;52.486;13.424;2023-07-20T05:42:09;18.80;99.90
8676;DHT22;4375;52.486;13.424;2023-07-20T05:44:35;18.70;99.90
8676;DHT22;4375;52.486;13.424;2023-07-20T05:47:00;18.60;99.90
8676;DHT22;4375;52.486;13.424;2023-07-20T05:49:28;18.70;99.90
8676;DHT22;4375;52.486;13.424;2023-07-20T05:51:54;18.80;99.90
8676;DHT22;4375;52.486;13.424;2023-07-20T05:54:21;18.60;99.90
8676;DHT22;4375;52.486;13.424;2023-07-20T05:56:47;18.70;99.90
8676;DHT22;4375;52.486;13.424;2023-07-20T05:59:13;18.80;99.90
8676;DHT22;4375;52.486;13.424;2023-07-20T06:01:38;19.00;99.90
8676;DHT22;4375;52.486;13.424;2023-07-20T06:04:04;19.20;99.90
8676;DHT22;4375;52.486;13.424;2023-07-20T06:06:30;19.30;99.90
8676;DHT22;4375;52.486;13.424;2023-07-20T06:08:55;19.40;99.90
8676;DHT22;4375;52.486;13.424;2023-07-20T06:11:21;19.60;99.90
8676;DHT22;4375;52.486;13.424;2023-07-20T06:13:46;19.60;99.90
8676;DHT22;4375;52.486;13.424;2023-07-20T06:16:12;19.50;99.90
8676;DHT22;4375;52.486;13.424;2023-07-20T06:18:38;19.30;99.90
8676;DHT22;4375;52.486;13.424;2023-07-20T06:21:04;19.30;99.90
8676;DHT22;4375;52.486;13.424;2023-07-20T06:23:30;19.00;99.90
8676;DHT22;4375;52.486;13.424;2023-07-20T06:25:55;19.00;99.90
8676;DHT22;4375;52.486;13.424;2023-07-20T06:28:21;18.80;99.90
8676;DHT22;4375;52.486;13.424;2023-07-20T06:30:47;18.80;99.90
8676;DHT22;4375;52.486;13.424;2023-07-20T06:33:12;18.80;99.90
8676;DHT22;4375;52.486;13.424;2023-07-20T06:35:41;18.80;99.90
8676;DHT22;4375;52.486;13.424;2023-07-20T06:38:08;19.00;99.90
8676;DHT22;4375;52.486;13.424;2023-07-20T06:40:34;19.00;99.90
8676;DHT22;4375;52.486;13.424;2023-07-20T06:42:59;18.90;99.90
8676;DHT22;4375;52.486;13.424;2023-07-20T06:45:25;19.10;99.90
8676;DHT22;4375;52.486;13.424;2023-07-20T06:47:51;19.30;99.90
8676;DHT22;4375;52.486;13.424;2023-07-20T06:50:16;19.50;99.90
8676;DHT22;4375;52.486;13.424;2023-07-20T06:52:42;19.70;99.90
8676;DHT22;4375;52.486;13.424;2023-07-20T06:55:08;19.70;99.90
8676;DHT22;4375;52.486;13.424;2023-07-20T06:57:34;19.70;99.90
8676;DHT22;4375;52.486;13.424;2023-07-20T06:59:59;19.80;99.90
8676;DHT22;4375;52.486;13.424;2023-07-20T07:02:25;19.90;99.90
8676;DHT22;4375;52.486;13.424;2023-07-20T07:04:50;19.70;99.90
8676;DHT22;4375;52.486;13.424;2023-07-20T07:07:16;19.60;99.90
8676;DHT22;4375;52.486;13.424;2023-07-20T07:09:42;19.50;99.90
8676;DHT22;4375;52.486;13.424;2023-07-20T07:12:08;19.40;99.90
8676;DHT22;4375;52.486;13.424;2023-07-20T07:14:34;19.40;99.90
8676;DHT22;4375;52.486;13.424;2023-07-20T07:17:00;19.50;99.90
8676;DHT22;4375;52.486;13.424;2023-07-20T07:19:26;19.60;99.90
8676;DHT22;4375;52.486;13.424;2023-07-20T07:21:51;19.50;99.90
8676;DHT22;4375;52.486;13.424;2023-07-20T07:24:20;19.60;99.90
8676;DHT22;4375;52.486;13.424;2023-07-20T07:26:45;19.70;99.90
8676;DHT22;4375;52.486;13.424;2023-07-20T07:29:13;20.00;99.90
8676;DHT22;4375;52.486;13.424;2023-07-20T07:31:39;20.30;99.90
8676;DHT22;4375;52.486;13.424;2023-07-20T07:34:05;20.50;99.90
8676;DHT22;4375;52.486;13.424;2023-07-20T07:36:31;20.90;99.90
8676;DHT22;4375;52.486;13.424;2023-07-20T07:38:57;21.00;99.90
8676;DHT22;4375;52.486;13.424;2023-07-20T07:41:23;21.30;99.90
8676;DHT22;4375;52.486;13.424;2023-07-20T07:43:48;21.80;99.90
8676;DHT22;4375;52.486;13.424;2023-07-20T07:46:14;22.80;99.90
8676;DHT22;4375;52.486;13.424;2023-07-20T07:48:40;23.40;99.90
8676;DHT22;4375;52.486;13.424;2023-07-20T07:51:05;24.60;99.90
8676;DHT22;4375;52.486;13.424;2023-07-20T07:53:31;25.50;99.90
8676;DHT22;4375;52.486;13.424;2023-07-20T07:55:58;25.30;99.90
8676;DHT22;4375;52.486;13.424;2023-07-20T07:58:24;24.90;99.90
8676;DHT22;4375;52.486;13.424;2023-07-20T08:00:49;24.50;99.90
8676;DHT22;4375;52.486;13.424;2023-07-20T08:03:15;24.20;99.90
8676;DHT22;4375;52.486;13.424;2023-07-20T08:05:41;23.70;99.90
8676;DHT22;4375;52.486;13.424;2023-07-20T08:08:06;24.00;99.90
8676;DHT22;4375;52.486;13.424;2023-07-20T08:10:34;24.50;99.90
8676;DHT22;4375;52.486;13.424;2023-07-20T08:12:59;25.20;99.90
8676;DHT22;4375;52.486;13.424;2023-07-20T08:15:25;25.10;99.90
8676;DHT22;4375;52.486;13.424;2023-07-20T08:17:51;25.30;99.90
8676;DHT22;4375;52.486;13.424;2023-07-20T08:20:17;25.10;99.90
8676;DHT22;4375;52.486;13.424;2023-07-20T08:22:43;24.80;99.90
8676;DHT22;4375;52.486;13.424;2023-07-20T08:25:09;24.30;99.90
8676;DHT22;4375;52.486;13.424;2023-07-20T08:27:36;23.60;99.90
8676;DHT22;4375;52.486;13.424;2023-07-20T08:30:02;23.20;99.90
8676;DHT22;4375;52.486;13.424;2023-07-20T08:32:29;22.40;99.90
8676;DHT22;4375;52.486;13.424;2023-07-20T08:34:55;22.40;99.90
8676;DHT22;4375;52.486;13.424;2023-07-20T08:37:21;22.30;99.90
8676;DHT22;4375;52.486;13.424;2023-07-20T08:39:46;22.40;99.90
8676;DHT22;4375;52.486;13.424;2023-07-20T08:42:14;23.40;99.90
8676;DHT22;4375;52.486;13.424;2023-07-20T08:44:41;23.70;99.90
8676;DHT22;4375;52.486;13.424;2023-07-20T08:47:09;24.10;99.90
8676;DHT22;4375;52.486;13.424;2023-07-20T08:49:35;24.30;99.90
8676;DHT22;4375;52.486;13.424;2023-07-20T08:52:00;24.60;99.90
8676;DHT22;4375;52.486;13.424;2023-07-20T08:54:31;24.40;99.90
8676;DHT22;4375;52.486;13.424;2023-07-20T08:57:03;24.20;99.90
8676;DHT22;4375;52.486;13.424;2023-07-20T08:59:30;23.90;99.90
8676;DHT22;4375;52.486;13.424;2023-07-20T09:01:59;24.00;99.90
8676;DHT22;4375;52.486;13.424;2023-07-20T09:04:25;23.90;99.90
8676;DHT22;4375;52.486;13.424;2023-07-20T09:06:51;23.20;99.90
8676;DHT22;4375;52.486;13.424;2023-07-20T09:09:17;22.70;99.90
8676;DHT22;4375;52.486;13.424;2023-07-20T09:11:46;22.90;99.90
8676;DHT22;4375;52.486;13.424;2023-07-20T09:14:12;24.30;99.90
8676;DHT22;4375;52.486;13.424;2023-07-20T09:16:54;24.90;99.90
8676;DHT22;4375;52.486;13.424;2023-07-20T09:19:20;25.70;99.90
8676;DHT22;4375;52.486;13.424;2023-07-20T09:21:48;25.90;99.90
8676;DHT22;4375;52.486;13.424;2023-07-20T09:24:13;25.50;99.90
8676;DHT22;4375;52.486;13.424;2023-07-20T09:26:46;24.80;99.90
8676;DHT22;4375;52.486;13.424;2023-07-20T09:29:19;24.30;99.90
8676;DHT22;4375;52.486;13.424;2023-07-20T09:32:17;24.80;99.90
8676;DHT22;4375;52.486;13.424;2023-07-20T09:44:59;26.70;99.90
8676;DHT22;4375;52.486;13.424;2023-07-20T09:47:25;26.10;99.90
8676;DHT22;4375;52.486;13.424;2023-07-20T09:49:58;25.90;99.90
8676;DHT22;4375;52.486;13.424;2023-07-20T09:52:25;26.00;99.90
8676;DHT22;4375;52.486;13.424;2023-07-20T09:54:51;25.60;99.90
8676;DHT22;4375;52.486;13.424;2023-07-20T09:57:31;24.90;99.90
8676;DHT22;4375;52.486;13.424;2023-07-20T10:00:05;24.50;99.90
8676;DHT22;4375;52.486;13.424;2023-07-20T10:02:43;23.70;99.90
8676;DHT22;4375;52.486;13.424;2023-07-20T10:05:13;23.30;99.90
8676;DHT22;4375;52.486;13.424;2023-07-20T10:07:50;22.80;99.90
8676;DHT22;4375;52.486;13.424;2023-07-20T10:10:17;22.20;99.90
8676;DHT22;4375;52.486;13.424;2023-07-20T10:12:47;22.00;99.90
8676;DHT22;4375;52.486;13.424;2023-07-20T10:15:33;21.90;99.90
8676;DHT22;4375;52.486;13.424;2023-07-20T10:18:12;21.80;99.90
8676;DHT22;4375;52.486;13.424;2023-07-20T10:20:40;22.00;99.90
8676;DHT22;4375;52.486;13.424;2023-07-20T10:23:09;22.20;99.90
8676;DHT22;4375;52.486;13.424;2023-07-20T10:25:35;22.70;99.90
8676;DHT22;4375;52.486;13.424;2023-07-20T10:28:07;23.50;99.90
8676;DHT22;4375;52.486;13.424;2023-07-20T10:30:36;24.00;99.90
8676;DHT22;4375;52.486;13.424;2023-07-20T10:33:03;24.10;99.90
8676;DHT22;4375;52.486;13.424;2023-07-20T10:35:29;23.60;99.90
8676;DHT22;4375;52.486;13.424;2023-07-20T10:38:04;23.40;99.90
8676;DHT22;4375;52.486;13.424;2023-07-20T10:40:34;23.20;99.90
8676;DHT22;4375;52.486;13.424;2023-07-20T10:43:12;22.70;99.90
8676;DHT22;4375;52.486;13.424;2023-07-20T10:45:53;22.50;99.90
8676;DHT22;4375;52.486;13.424;2023-07-20T10:48:21;22.40;99.90
8676;DHT22;4375;52.486;13.424;2023-07-20T10:51:13;22.40;99.90
8676;DHT22;4375;52.486;13.424;2023-07-20T10:53:42;22.10;99.90
8676;DHT22;4375;52.486;13.424;2023-07-20T10:56:15;21.80;99.90
8676;DHT22;4375;52.486;13.424;2023-07-20T10:58:41;21.80;99.90
8676;DHT22;4375;52.486;13.424;2023-07-20T11:01:08;21.70;99.90
8676;DHT22;4375;52.486;13.424;2023-07-20T11:03:36;21.60;99.90
8676;DHT22;4375;52.486;13.424;2023-07-20T11:11:45;21.70;99.90
8676;DHT22;4375;52.486;13.424;2023-07-20T11:14:29;21.90;99.90
8676;DHT22;4375;52.486;13.424;2023-07-20T11:17:14;22.00;99.90
8676;DHT22;4375;52.486;13.424;2023-07-20T11:19:40;22.00;99.90
8676;DHT22;4375;52.486;13.424;2023-07-20T11:22:06;22.00;99.90
8676;DHT22;4375;52.486;13.424;2023-07-20T11:24:33;21.90;99.90
8676;DHT22;4375;52.486;13.424;2023-07-20T11:26:59;21.70;99.90
8676;DHT22;4375;52.486;13.424;2023-07-20T11:29:26;22.00;99.90
8676;DHT22;4375;52.486;13.424;2023-07-20T11:31:52;21.90;99.90
8676;DHT22;4375;52.486;13.424;2023-07-20T11:34:19;21.90;99.90
8676;DHT22;4375;52.486;13.424;2023-07-20T11:36:47;21.80;99.90
8676;DHT22;4375;52.486;13.424;2023-07-20T11:39:14;21.70;99.90
8676;DHT22;4375;52.486;13.424;2023-07-20T11:41:51;21.80;99.90
8676;DHT22;4375;52.486;13.424;2023-07-20T11:44:17;22.10;99.90
8676;DHT22;4375;52.486;13.424;2023-07-20T11:46:44;22.40;99.90
8676;DHT22;4375;52.486;13.424;2023-07-20T11:49:11;22.50;99.90
8676;DHT22;4375;52.486;13.424;2023-07-20T11:51:38;22.20;99.90
8676;DHT22;4375;52.486;13.424;2023-07-20T11:54:07;22.40;99.90
8676;DHT22;4375;52.486;13.424;2023-07-20T11:56:32;22.30;99.90
8676;DHT22;4375;52.486;13.424;2023-07-20T11:58:59;22.20;99.90
8676;DHT22;4375;52.486;13.424;2023-07-20T12:01:27;22.30;99.90
8676;DHT22;4375;52.486;13.424;2023-07-20T12:04:01;22.40;99.90
8676;DHT22;4375;52.486;13.424;2023-07-20T12:06:28;22.80;99.90
8676;DHT22;4375;52.486;13.424;2023-07-20T12:08:57;22.90;99.90
8676;DHT22;4375;52.486;13.424;2023-07-20T12:11:37;22.60;99.90
8676;DHT22;4375;52.486;13.424;2023-07-20T12:14:09;22.70;99.90
8676;DHT22;4375;52.486;13.424;2023-07-20T12:16:36;22.80;99.90
8676;DHT22;4375;52.486;13.424;2023-07-20T12:19:06;22.90;99.90
8676;DHT22;4375;52.486;13.424;2023-07-20T12:21:33;22.70;99.90
8676;DHT22;4375;52.486;13.424;2023-07-20T12:23:59;22.50;99.90
8676;DHT22;4375;52.486;13.424;2023-07-20T12:26:25;22.10;99.90
8676;DHT22;4375;52.486;13.424;2023-07-20T12:28:52;22.10;99.90
8676;DHT22;4375;52.486;13.424;2023-07-20T12:31:18;22.00;99.90
8676;DHT22;4375;52.486;13.424;2023-07-20T12:33:43;22.00;99.90
8676;DHT22;4375;52.486;13.424;2023-07-20T12:36:10;22.00;99.90
8676;DHT22;4375;52.486;13.424;2023-07-20T12:38:36;22.00;99.90
8676;DHT22;4375;52.486;13.424;2023-07-20T12:41:02;22.10;99.90
8676;DHT22;4375;52.486;13.424;2023-07-20T12:43:28;22.20;99.90
8676;DHT22;4375;52.486;13.424;2023-07-20T12:45:55;22.10;99.90
8676;DHT22;4375;52.486;13.424;2023-07-20T12:48:20;22.20;99.90
8676;DHT22;4375;52.486;13.424;2023-07-20T12:50:46;22.50;99.90
8676;DHT22;4375;52.486;13.424;2023-07-20T12:53:12;22.60;99.90
8676;DHT22;4375;52.486;13.424;2023-07-20T12:55:38;22.50;99.90
8676;DHT22;4375;52.486;13.424;2023-07-20T12:58:08;22.30;99.90
8676;DHT22;4375;52.486;13.424;2023-07-20T13:00:34;22.20;99.90
8676;DHT22;4375;52.486;13.424;2023-07-20T13:02:59;22.00;99.90
8676;DHT22;4375;52.486;13.424;2023-07-20T13:05:25;22.00;99.90
8676;DHT22;4375;52.486;13.424;2023-07-20T13:07:51;21.90;99.90
8676;DHT22;4375;52.486;13.424;2023-07-20T13:10:17;21.80;99.90
8676;DHT22;4375;52.486;13.424;2023-07-20T13:12:43;21.60;99.90
8676;DHT22;4375;52.486;13.424;2023-07-20T13:15:10;21.50;99.90
8676;DHT22;4375;52.486;13.424;2023-07-20T13:17:37;21.70;99.90
8676;DHT22;4375;52.486;13.424;2023-07-20T13:20:05;21.70;99.90
8676;DHT22;4375;52.486;13.424;2023-07-20T13:22:32;21.80;99.90
8676;DHT22;4375;52.486;13.424;2023-07-20T13:24:57;21.90;99.90
8676;DHT22;4375;52.486;13.424;2023-07-20T13:27:23;21.80;99.90
8676;DHT22;4375;52.486;13.424;2023-07-20T13:29:51;21.90;99.90
8676;DHT22;4375;52.486;13.424;2023-07-20T13:32:16;22.00;99.90
8676;DHT22;4375;52.486;13.424;2023-07-20T13:34:43;21.90;99.90
8676;DHT22;4375;52.486;13.424;2023-07-20T13:37:10;21.90;99.90
8676;DHT22;4375;52.486;13.424;2023-07-20T13:39:36;21.90;99.90
8676;DHT22;4375;52.486;13.424;2023-07-20T13:42:02;21.90;99.90
8676;DHT22;4375;52.486;13.424;2023-07-20T13:44:30;22.00;99.90
8676;DHT22;4375;52.486;13.424;2023-07-20T13:46:56;22.00;99.90
8676;DHT22;4375;52.486;13.424;2023-07-20T13:49:22;22.10;99.90
8676;DHT22;4375;52.486;13.424;2023-07-20T13:51:48;22.10;99.90
8676;DHT22;4375;52.486;13.424;2023-07-20T13:54:13;22.20;99.90
8676;DHT22;4375;52.486;13.424;2023-07-20T13:56:39;22.30;99.90
8676;DHT22;4375;52.486;13.424;2023-07-20T13:59:04;22.30;99.90
8676;DHT22;4375;52.486;13.424;2023-07-20T14:01:30;22.40;99.90
8676;DHT22;4375;52.486;13.424;2023-07-20T14:03:58;22.40;99.90
8676;DHT22;4375;52.486;13.424;2023-07-20T14:06:25;22.30;99.90
8676;DHT22;4375;52.486;13.424;2023-07-20T14:08:51;22.20;99.90
8676;DHT22;4375;52.486;13.424;2023-07-20T14:11:18;22.30;99.90
8676;DHT22;4375;52.486;13.424;2023-07-20T14:13:44;22.50;99.90
8676;DHT22;4375;52.486;13.424;2023-07-20T14:16:10;22.70;99.90
8676;DHT22;4375;52.486;13.424;2023-07-20T14:18:36;22.90;99.90
8676;DHT22;4375;52.486;13.424;2023-07-20T14:21:02;23.20;99.90
8676;DHT22;4375;52.486;13.424;2023-07-20T14:23:29;23.30;99.90
8676;DHT22;4375;52.486;13.424;2023-07-20T14:25:55;23.30;99.90
8676;DHT22;4375;52.486;13.424;2023-07-20T14:28:23;23.30;99.90
8676;DHT22;4375;52.486;13.424;2023-07-20T14:30:49;23.40;99.90
8676;DHT22;4375;52.486;13.424;2023-07-20T14:33:15;23.10;99.70
8676;DHT22;4375;52.486;13.424;2023-07-20T14:35:40;23.10;99.80
8676;DHT22;4375;52.486;13.424;2023-07-20T14:38:06;23.10;99.50
8676;DHT22;4375;52.486;13.424;2023-07-20T14:40:31;23.30;99.90
8676;DHT22;4375;52.486;13.424;2023-07-20T14:42:58;23.30;99.60
8676;DHT22;4375;52.486;13.424;2023-07-20T14:45:24;23.20;99.10
8676;DHT22;4375;52.486;13.424;2023-07-20T14:47:50;23.10;99.10
8676;DHT22;4375;52.486;13.424;2023-07-20T14:50:19;22.90;98.60
8676;DHT22;4375;52.486;13.424;2023-07-20T14:52:45;22.80;98.60
8676;DHT22;4375;52.486;13.424;2023-07-20T14:55:11;22.90;99.00
8676;DHT22;4375;52.486;13.424;2023-07-20T14:57:37;22.80;98.10
8676;DHT22;4375;52.486;13.424;2023-07-20T15:00:04;22.80;98.10
8676;DHT22;4375;52.486;13.424;2023-07-20T15:02:37;22.90;98.20
8676;DHT22;4375;52.486;13.424;2023-07-20T15:05:03;22.90;97.70
8676;DHT22;4375;52.486;13.424;2023-07-20T15:07:28;22.90;97.50
8676;DHT22;4375;52.486;13.424;2023-07-20T15:09:54;23.10;97.80
8676;DHT22;4375;52.486;13.424;2023-07-20T15:12:19;23.00;97.70
8676;DHT22;4375;52.486;13.424;2023-07-20T15:17:29;22.80;98.10
8676;DHT22;4375;52.486;13.424;2023-07-20T15:19:54;23.00;97.70
8676;DHT22;4375;52.486;13.424;2023-07-20T15:22:20;23.10;97.00
8676;DHT22;4375;52.486;13.424;2023-07-20T15:24:47;23.10;96.60
8676;DHT22;4375;52.486;13.424;2023-07-20T15:27:16;23.10;96.60
8676;DHT22;4375;52.486;13.424;2023-07-20T15:29:41;22.90;96.80
8676;DHT22;4375;52.486;13.424;2023-07-20T15:32:07;23.00;96.80
8676;DHT22;4375;52.486;13.424;2023-07-20T15:34:34;23.10;96.90
8676;DHT22;4375;52.486;13.424;2023-07-20T15:36:59;23.00;96.40
8676;DHT22;4375;52.486;13.424;2023-07-20T15:39:25;22.90;96.10
8676;DHT22;4375;52.486;13.424;2023-07-20T15:41:52;22.90;96.30
8676;DHT22;4375;52.486;13.424;2023-07-20T15:44:18;22.90;96.00
8676;DHT22;4375;52.486;13.424;2023-07-20T15:46:45;22.90;95.60
8676;DHT22;4375;52.486;13.424;2023-07-20T15:49:11;22.90;95.30
8676;DHT22;4375;52.486;13.424;2023-07-20T15:51:37;22.90;95.20
8676;DHT22;4375;52.486;13.424;2023-07-20T15:54:05;23.00;95.50
8676;DHT22;4375;52.486;13.424;2023-07-20T15:56:34;23.20;95.80
8676;DHT22;4375;52.486;13.424;2023-07-20T15:58:59;23.30;96.30
8676;DHT22;4375;52.486;13.424;2023-07-20T16:01:25;23.50;96.30
8676;DHT22;4375;52.486;13.424;2023-07-20T16:03:51;23.50;95.90
8676;DHT22;4375;52.486;13.424;2023-07-20T16:06:17;23.30;95.30
8676;DHT22;4375;52.486;13.424;2023-07-20T16:08:42;23.20;95.30
8676;DHT22;4375;52.486;13.424;2023-07-20T16:11:08;23.10;95.70